createdAt,value
2022-09-13T00:00:38.589Z,8.15
2022-09-13T00:03:43.063Z,10.23
2022-09-13T00:06:47.365Z,10.02
2022-09-13T00:09:51.178Z,8.98
2022-09-13T00:12:55.576Z,11.75
2022-09-13T00:16:02.740Z,9.45
2022-09-13T00:19:06.934Z,8.32
2022-09-13T00:22:11.225Z,10.93
2022-09-13T00:25:15.250Z,8.48
2022-09-13T00:28:19.288Z,12.15
2022-09-13T00:31:25.199Z,9.35
2022-09-13T00:34:29.271Z,12.38
2022-09-13T00:37:34.240Z,9.20
2022-09-13T00:40:38.510Z,12.48
2022-09-13T00:43:51.532Z,9.50
2022-09-13T00:46:55.542Z,14.43
2022-09-13T00:50:07.446Z,11.77
2022-09-13T00:53:16.499Z,13.32
2022-09-13T00:56:33.709Z,12.75
2022-09-13T00:59:47.926Z,10.00
2022-09-13T01:03:02.141Z,9.35
2022-09-13T01:06:29.423Z,11.07
2022-09-13T01:09:38.047Z,10.43
2022-09-13T01:12:55.869Z,11.23
2022-09-13T01:16:00.694Z,10.48
2022-09-13T01:19:04.713Z,13.63
2022-09-13T01:22:39.140Z,11.60
2022-09-13T01:29:25.692Z,10.45
2022-09-13T01:35:57.275Z,12.38
2022-09-13T01:39:06.781Z,11.98
2022-09-13T01:42:22.156Z,13.85
2022-09-13T01:45:59.431Z,10.88
2022-09-13T01:49:21.898Z,10.95
2022-09-13T01:52:44.634Z,9.50
2022-09-13T01:55:59.053Z,11.98
2022-09-13T01:59:16.501Z,8.65
2022-09-13T02:02:57.742Z,8.57
2022-09-13T02:06:07.093Z,10.27
2022-09-13T02:09:17.532Z,9.20
2022-09-13T02:12:28.769Z,11.35
2022-09-13T02:15:40.370Z,10.93
2022-09-13T02:18:51.302Z,10.35
2022-09-13T02:21:59.892Z,10.10
2022-09-13T02:25:10.311Z,9.75
2022-09-13T02:28:21.020Z,12.68
2022-09-13T02:31:30.744Z,10.52
2022-09-13T02:34:40.157Z,12.00
2022-09-13T02:37:47.847Z,9.43
2022-09-13T02:41:27.897Z,9.13
2022-09-13T02:44:37.544Z,10.45
2022-09-13T02:47:52.485Z,9.68
2022-09-13T02:51:16.093Z,11.30
2022-09-13T02:54:44.561Z,11.23
2022-09-13T02:58:14.170Z,11.27
2022-09-13T03:01:19.045Z,11.18
2022-09-13T03:04:23.040Z,10.10
2022-09-13T03:07:27.590Z,11.43
2022-09-13T03:10:45.730Z,8.93
2022-09-13T03:13:55.827Z,11.18
2022-09-13T03:17:18.252Z,9.75
2022-09-13T03:20:54.218Z,11.32
2022-09-13T03:24:04.280Z,10.80
2022-09-13T03:27:34.588Z,8.88
2022-09-13T03:30:46.433Z,9.30
2022-09-13T03:33:59.854Z,10.43
2022-09-13T03:37:17.475Z,9.85
2022-09-13T03:40:40.679Z,12.05
2022-09-13T03:43:57.905Z,10.07
2022-09-13T03:47:05.406Z,12.05
2022-09-13T03:50:10.494Z,12.63
2022-09-13T03:53:21.032Z,11.32
2022-09-13T03:56:25.278Z,9.55
2022-09-13T03:59:29.386Z,10.93
2022-09-13T04:02:33.414Z,10.45
2022-09-13T04:05:37.967Z,10.90
2022-09-13T04:08:43.530Z,10.82
2022-09-13T04:11:47.760Z,10.30
2022-09-13T04:14:52.506Z,11.38
2022-09-13T04:17:57.091Z,10.40
2022-09-13T04:21:02.308Z,10.73
2022-09-13T04:24:06.655Z,10.10
2022-09-13T04:27:12.183Z,9.60
2022-09-13T04:30:16.180Z,13.80
2022-09-13T04:33:20.371Z,10.52
2022-09-13T04:36:24.363Z,10.75
2022-09-13T04:39:28.618Z,9.93
2022-09-13T04:42:32.682Z,11.90
2022-09-13T04:45:37.763Z,9.75
2022-09-13T04:48:41.867Z,9.93
2022-09-13T04:51:46.375Z,11.98
2022-09-13T04:54:50.154Z,10.27
2022-09-13T04:57:54.747Z,12.02
2022-09-13T05:01:02.919Z,13.80
2022-09-13T05:04:07.839Z,11.85
2022-09-13T05:07:12.018Z,9.77
2022-09-13T05:10:19.427Z,13.63
2022-09-13T05:13:24.607Z,12.63
2022-09-13T05:16:30.985Z,9.20
2022-09-13T05:19:35.323Z,10.70
2022-09-13T05:22:39.366Z,14.50
2022-09-13T05:25:43.223Z,14.52
2022-09-13T05:28:47.694Z,13.10
2022-09-13T05:31:52.317Z,11.13
2022-09-13T05:34:56.816Z,12.18
2022-09-13T05:38:01.045Z,11.18
2022-09-13T05:41:06.072Z,12.02
2022-09-13T05:44:13.362Z,10.52
2022-09-13T05:47:17.797Z,12.25
2022-09-13T05:50:53.927Z,13.85
2022-09-13T05:53:48.507Z,19.40
2022-09-13T05:56:54.244Z,11.75
2022-09-13T05:59:58.196Z,15.82
2022-09-13T06:03:02.136Z,13.23
2022-09-13T06:06:06.762Z,9.75
2022-09-13T06:09:12.055Z,13.68
2022-09-13T06:12:16.357Z,14.70
2022-09-13T06:15:20.326Z,10.00
2022-09-13T06:18:25.124Z,15.45
2022-09-13T06:21:29.514Z,12.50
2022-09-13T06:24:33.401Z,13.00
2022-09-13T06:27:37.688Z,11.43
2022-09-13T06:30:41.898Z,11.75
2022-09-13T06:33:47.154Z,11.93
2022-09-13T06:36:51.370Z,13.18
2022-09-13T06:39:55.797Z,11.70
2022-09-13T06:43:01.227Z,13.75
2022-09-13T06:46:12.044Z,14.55
2022-09-13T06:49:16.656Z,12.93
2022-09-13T06:52:20.949Z,12.52
2022-09-13T06:55:25.596Z,18.42
2022-09-13T06:58:31.731Z,12.60
2022-09-13T07:01:40.761Z,17.10
2022-09-13T07:04:45.057Z,14.32
2022-09-13T07:07:48.983Z,12.63
2022-09-13T07:10:57.800Z,10.82
2022-09-13T07:14:06.849Z,15.52
2022-09-13T07:17:10.958Z,13.07
2022-09-13T07:20:15.923Z,13.20
2022-09-13T07:23:20.817Z,15.52
2022-09-13T07:26:31.554Z,14.15
2022-09-13T07:29:35.767Z,19.88
2022-09-13T07:32:40.215Z,19.45
2022-09-13T07:35:44.446Z,13.02
2022-09-13T07:38:48.595Z,13.35
2022-09-13T07:41:53.832Z,16.23
2022-09-13T07:44:58.446Z,15.13
2022-09-13T07:48:02.999Z,15.80
2022-09-13T07:51:10.529Z,12.00
2022-09-13T07:54:17.903Z,13.07
2022-09-13T07:57:23.098Z,16.88
2022-09-13T08:00:27.616Z,15.52
2022-09-13T08:03:33.642Z,12.15
2022-09-13T08:06:39.582Z,17.13
2022-09-13T08:09:43.802Z,14.05
2022-09-13T08:12:48.148Z,11.02
2022-09-13T08:15:52.852Z,12.65
2022-09-13T08:19:00.170Z,13.10
2022-09-13T08:22:04.537Z,13.18
2022-09-13T08:25:09.049Z,11.90
2022-09-13T08:28:17.230Z,12.13
2022-09-13T08:31:22.909Z,11.32
2022-09-13T08:34:27.233Z,13.55
2022-09-13T08:37:34.287Z,19.60
2022-09-13T08:40:47.392Z,12.65
2022-09-13T08:44:00.547Z,11.48
2022-09-13T08:47:23.449Z,11.80
2022-09-13T08:50:32.595Z,14.43
2022-09-13T08:53:48.057Z,11.75
2022-09-13T08:57:04.321Z,14.30
2022-09-13T09:00:23.469Z,11.95
2022-09-13T09:03:34.763Z,10.32
2022-09-13T09:06:39.124Z,10.23
2022-09-13T09:09:50.975Z,12.45
2022-09-13T09:13:04.257Z,11.43
2022-09-13T09:16:27.158Z,13.35
2022-09-13T09:20:23.915Z,11.57
2022-09-13T09:23:41.797Z,10.80
2022-09-13T09:26:45.992Z,10.10
2022-09-13T09:29:58.078Z,12.73
2022-09-13T09:33:16.122Z,11.23
2022-09-13T09:36:23.051Z,11.52
2022-09-13T09:39:33.331Z,15.55
2022-09-13T09:42:48.049Z,15.93
2022-09-13T09:45:55.365Z,15.25
2022-09-13T09:49:43.078Z,10.77
2022-09-13T09:53:06.898Z,12.20
2022-09-13T09:56:20.532Z,14.07
2022-09-13T10:02:37.623Z,10.77
2022-09-13T10:05:42.705Z,10.07
2022-09-13T10:08:58.495Z,17.40
2022-09-13T10:12:03.493Z,9.20
2022-09-13T10:15:20.453Z,9.00
2022-09-13T10:18:43.409Z,12.77
2022-09-13T10:22:03.974Z,8.25
2022-09-13T10:25:25.758Z,7.78
2022-09-13T10:28:32.564Z,11.27
2022-09-13T10:31:41.011Z,11.77
2022-09-13T10:34:46.274Z,8.82
2022-09-13T10:37:52.105Z,8.75
2022-09-13T10:40:57.117Z,8.70
2022-09-13T10:44:09.047Z,6.68
2022-09-13T10:47:22.142Z,6.85
2022-09-13T10:50:28.469Z,7.10
2022-09-13T10:53:36.903Z,11.70
2022-09-13T10:56:42.704Z,5.03
2022-09-13T10:59:54.748Z,7.70
2022-09-13T11:03:23.424Z,6.85
2022-09-13T11:07:02.248Z,6.78
2022-09-13T11:10:25.777Z,7.90
2022-09-13T11:13:55.279Z,6.85
2022-09-13T11:17:38.219Z,7.50
2022-09-13T11:21:20.802Z,7.07
2022-09-13T11:24:40.322Z,9.82
2022-09-13T11:27:55.853Z,8.05
2022-09-13T11:31:06.172Z,4.93
2022-09-13T11:34:21.008Z,8.57
2022-09-13T11:37:53.418Z,7.63
2022-09-13T11:41:15.772Z,5.55
2022-09-13T11:44:28.913Z,7.28
2022-09-13T11:47:52.638Z,9.45
2022-09-13T11:51:09.341Z,11.25
2022-09-13T11:54:28.602Z,7.97
2022-09-13T11:57:40.873Z,7.55
2022-09-13T12:00:50.291Z,6.95
2022-09-13T12:04:09.994Z,7.35
2022-09-13T12:07:40.709Z,6.80
2022-09-13T12:10:50.787Z,7.38
2022-09-13T12:14:01.353Z,8.10
2022-09-13T12:17:15.526Z,5.10
2022-09-13T12:20:25.473Z,10.50
2022-09-13T12:23:37.751Z,13.32
2022-09-13T12:26:52.008Z,9.68
2022-09-13T12:30:07.662Z,7.47
2022-09-13T12:33:15.659Z,6.32
2022-09-13T12:37:01.618Z,7.43
2022-09-13T12:40:29.790Z,13.68
2022-09-13T12:43:49.260Z,7.40
2022-09-13T12:47:27.587Z,6.30
2022-09-13T12:51:22.109Z,5.55
2022-09-13T12:54:29.008Z,7.45
2022-09-13T12:57:49.213Z,5.10
2022-09-13T13:01:05.853Z,6.43
2022-09-13T13:04:25.581Z,7.25
2022-09-13T13:07:32.641Z,7.15
2022-09-13T13:10:38.579Z,9.35
2022-09-13T13:14:02.446Z,8.18
2022-09-13T13:17:35.939Z,7.47
2022-09-13T13:21:05.650Z,14.57
2022-09-13T13:24:15.940Z,7.38
2022-09-13T13:27:35.259Z,11.45
2022-09-13T13:30:42.166Z,5.35
2022-09-13T13:33:59.591Z,12.60
2022-09-13T13:37:05.852Z,6.75
2022-09-13T13:40:22.434Z,7.70
2022-09-13T13:43:32.614Z,6.03
2022-09-13T13:46:37.027Z,7.53
2022-09-13T13:49:46.234Z,5.47
2022-09-13T13:52:56.700Z,8.07
2022-09-13T13:56:17.297Z,5.30
2022-09-13T13:59:30.672Z,6.35
2022-09-13T14:05:51.699Z,8.13
2022-09-13T14:12:29.618Z,7.60
2022-09-13T14:15:42.815Z,5.63
2022-09-13T14:19:26.861Z,7.45
2022-09-13T14:22:31.071Z,9.85
2022-09-13T14:25:35.366Z,6.10
2022-09-13T14:28:40.340Z,7.10
2022-09-13T14:31:53.078Z,7.82
2022-09-13T14:35:03.942Z,3.75
2022-09-13T14:38:19.364Z,5.18
2022-09-13T14:41:32.137Z,5.75
2022-09-13T14:44:36.227Z,8.10
2022-09-13T14:48:10.728Z,5.07
2022-09-13T14:51:18.341Z,4.22
2022-09-13T14:54:43.682Z,7.63
2022-09-13T14:57:55.288Z,6.95
2022-09-13T15:01:02.993Z,3.80
2022-09-13T15:04:07.601Z,6.28
2022-09-13T15:07:44.227Z,6.05
2022-09-13T15:10:48.509Z,5.68
2022-09-13T15:14:17.338Z,7.18
2022-09-13T15:17:23.969Z,6.95
2022-09-13T15:20:50.409Z,8.40
2022-09-13T15:23:54.903Z,7.50
2022-09-13T15:27:07.450Z,4.63
2022-09-13T15:30:27.229Z,8.05
2022-09-13T15:33:34.297Z,10.07
2022-09-13T15:36:39.193Z,9.38
2022-09-13T15:40:20.152Z,8.35
2022-09-13T15:43:24.403Z,10.45
2022-09-13T15:46:29.588Z,7.32
2022-09-13T15:49:33.877Z,9.73
2022-09-13T15:52:38.259Z,9.05
2022-09-13T15:55:42.564Z,13.02
2022-09-13T15:58:47.196Z,10.57
2022-09-13T16:01:52.729Z,12.75
2022-09-13T16:04:56.954Z,7.88
2022-09-13T16:08:01.741Z,7.80
2022-09-13T16:11:06.930Z,12.43
2022-09-13T16:14:10.902Z,8.00
2022-09-13T16:17:27.015Z,8.35
2022-09-13T16:20:31.466Z,10.88
2022-09-13T16:23:35.968Z,9.77
2022-09-13T16:26:40.922Z,12.40
2022-09-13T16:29:45.487Z,8.23
2022-09-13T16:32:49.830Z,11.02
2022-09-13T16:35:53.993Z,7.82
2022-09-13T16:38:58.136Z,10.27
2022-09-13T16:42:02.221Z,8.85
2022-09-13T16:45:07.015Z,11.68
2022-09-13T16:48:11.517Z,12.80
2022-09-13T16:51:16.480Z,8.80
2022-09-13T16:54:21.389Z,10.50
2022-09-13T16:57:26.262Z,10.02
2022-09-13T17:00:30.160Z,9.57
2022-09-13T17:03:36.152Z,8.73
2022-09-13T17:06:40.839Z,7.18
2022-09-13T17:09:45.422Z,9.70
2022-09-13T17:12:50.495Z,7.93
2022-09-13T17:15:56.789Z,8.70
2022-09-13T17:19:04.242Z,8.98
2022-09-13T17:22:10.686Z,9.48
2022-09-13T17:25:16.224Z,10.48
2022-09-13T17:28:20.154Z,9.65
2022-09-13T17:31:25.471Z,8.80
2022-09-13T17:34:30.739Z,10.20
2022-09-13T17:37:34.684Z,7.43
2022-09-13T17:40:39.133Z,8.10
2022-09-13T17:43:44.517Z,11.13
2022-09-13T17:46:48.544Z,11.60
2022-09-13T17:49:52.923Z,9.63
2022-09-13T17:52:56.763Z,8.73
2022-09-13T17:56:00.462Z,12.32
2022-09-13T17:59:15.130Z,7.15
2022-09-13T18:02:19.732Z,8.65
2022-09-13T18:05:24.078Z,11.63
2022-09-13T18:08:29.807Z,8.18
2022-09-13T18:11:34.486Z,10.95
2022-09-13T18:14:39.088Z,9.35
2022-09-13T18:17:43.718Z,9.27
2022-09-13T18:20:47.883Z,11.55
2022-09-13T18:23:54.553Z,8.38
2022-09-13T18:26:58.393Z,8.98
2022-09-13T18:30:03.499Z,8.65
2022-09-13T18:33:11.392Z,9.90
2022-09-13T18:36:17.983Z,7.85
2022-09-13T18:39:22.796Z,9.27
2022-09-13T18:42:29.239Z,8.20
2022-09-13T18:45:36.658Z,11.80
2022-09-13T18:48:46.647Z,11.00
2022-09-13T18:51:51.527Z,10.52
2022-09-13T18:54:55.646Z,10.13
2022-09-13T18:57:59.972Z,10.25
2022-09-13T19:01:09.671Z,11.10
2022-09-13T19:04:16.217Z,15.73
2022-09-13T19:07:20.166Z,12.55
2022-09-13T19:10:24.627Z,12.15
2022-09-13T19:13:29.978Z,10.43
2022-09-13T19:16:34.848Z,10.38
2022-09-13T19:19:38.987Z,10.35
2022-09-13T19:22:46.230Z,10.98
2022-09-13T19:25:50.090Z,8.55
2022-09-13T19:28:57.252Z,11.30
2022-09-13T19:32:01.633Z,12.88
2022-09-13T19:35:06.309Z,13.18
2022-09-13T19:38:10.858Z,12.95
2022-09-13T19:41:18.400Z,9.68
2022-09-13T19:44:22.880Z,9.18
2022-09-13T19:48:12.904Z,14.23
2022-09-13T19:50:51.539Z,10.27
2022-09-13T19:53:58.032Z,11.93
2022-09-13T19:57:03.464Z,12.90
2022-09-13T20:00:09.316Z,12.93
2022-09-13T20:03:13.411Z,11.32
2022-09-13T20:06:18.403Z,13.10
2022-09-13T20:09:22.864Z,13.32
2022-09-13T20:12:27.159Z,11.20
2022-09-13T20:15:32.499Z,13.70
2022-09-13T20:18:37.223Z,11.27
2022-09-13T20:21:41.098Z,11.98
2022-09-13T20:24:45.538Z,10.50
2022-09-13T20:27:49.579Z,12.48
2022-09-13T20:30:55.482Z,13.60
2022-09-13T20:34:01.103Z,14.05
2022-09-13T20:37:06.138Z,14.25
2022-09-13T20:40:10.413Z,14.57
2022-09-13T20:43:15.157Z,13.30
2022-09-13T20:46:21.364Z,15.13
2022-09-13T20:49:26.281Z,12.68
2022-09-13T20:52:30.194Z,14.82
2022-09-13T20:55:35.085Z,17.02
2022-09-13T20:58:39.351Z,13.15
2022-09-13T21:01:43.413Z,13.68
2022-09-13T21:04:47.413Z,14.57
2022-09-13T21:08:10.448Z,12.25
2022-09-13T21:11:16.787Z,15.40
2022-09-13T21:14:21.895Z,14.13
2022-09-13T21:17:26.175Z,12.18
2022-09-13T21:20:30.229Z,12.02
2022-09-13T21:23:39.848Z,15.32
2022-09-13T21:26:44.013Z,14.02
2022-09-13T21:29:48.278Z,15.38
2022-09-13T21:32:52.327Z,17.55
2022-09-13T21:35:58.725Z,15.07
2022-09-13T21:39:04.698Z,14.57
2022-09-13T21:42:08.977Z,15.73
2022-09-13T21:45:12.907Z,12.55
2022-09-13T21:48:16.968Z,18.35
2022-09-13T21:51:22.549Z,13.70
2022-09-13T21:54:26.386Z,12.75
2022-09-13T21:57:30.619Z,12.23
2022-09-13T22:00:38.794Z,11.80
2022-09-13T22:03:44.433Z,13.52
2022-09-13T22:06:53.775Z,16.52
2022-09-13T22:09:57.927Z,12.45
2022-09-13T22:13:04.818Z,13.63
2022-09-13T22:16:09.875Z,12.65
2022-09-13T22:19:23.813Z,13.48
2022-09-13T22:22:28.217Z,15.32
2022-09-13T22:25:32.203Z,15.60
2022-09-13T22:28:36.389Z,12.63
2022-09-13T22:31:43.157Z,12.20
2022-09-13T22:34:47.145Z,12.70
2022-09-13T22:37:51.477Z,13.88
2022-09-13T22:41:00.534Z,12.95
2022-09-13T22:44:04.721Z,13.43
2022-09-13T22:47:09.148Z,11.98
2022-09-13T22:50:13.098Z,12.95
2022-09-13T22:53:17.044Z,11.95
2022-09-13T22:56:32.826Z,16.17
2022-09-13T22:59:36.807Z,14.80
2022-09-13T23:02:42.957Z,14.65
2022-09-13T23:05:52.138Z,16.98
2022-09-13T23:08:59.986Z,14.73
2022-09-13T23:12:04.736Z,18.98
2022-09-13T23:15:09.460Z,14.07
2022-09-13T23:18:14.248Z,15.63
2022-09-13T23:21:20.380Z,16.73
2022-09-13T23:24:24.776Z,17.13
2022-09-13T23:27:29.005Z,18.13
2022-09-13T23:30:32.979Z,14.73
2022-09-13T23:33:40.558Z,14.73
2022-09-13T23:36:44.759Z,13.82
2022-09-13T23:39:49.195Z,13.75
2022-09-13T23:42:53.473Z,10.48
2022-09-13T23:45:57.624Z,12.32
2022-09-13T23:49:01.471Z,12.18
2022-09-13T23:52:05.953Z,14.43
2022-09-13T23:55:10.052Z,14.27
2022-09-13T23:58:13.962Z,15.57
